Time;durP1;ratioP1;P1;durP2;ratioP2;P2;SDS_P1;SDS_P2;PMS_P1;PMS_P2;Temp;Humidity;BMP_temperature;BMP_pressure;BME280_temperature;BME280_humidity;BME280_pressure;Samples;Min_cycle;Max_cycle;Signal;HPM_P1;HPM_P2
2020/12/31 00:00:42;;;;;;;34.03;12.57;;;;;;;;;;4401885;32;20355;-58
2020/12/31 00:03:07;;;;;;;42.27;15.47;;;;;;;;;;4401902;32;20386;-58
2020/12/31 00:05:33;;;;;;;34.23;11.03;;;;;;;;;;4402781;32;20295;-58
2020/12/31 00:07:58;;;;;;;41.70;12.73;;;;;;;;;;4401859;32;20409;-59
2020/12/31 00:10:24;;;;;;;25.80;9.20;;;;;;;;;;4402628;32;20316;-58
2020/12/31 00:12:49;;;;;;;28.20;7.57;;;;;;;;;;4402963;32;20423;-59
2020/12/31 00:15:15;;;;;;;27.30;6.33;;;;;;;;;;4402904;32;20312;-57
2020/12/31 00:17:41;;;;;;;20.40;6.07;;;;;;;;;;4402588;32;20763;-58
2020/12/31 00:20:08;;;;;;;28.90;6.20;;;;;;;;;;4388826;32;20279;-57
2020/12/31 00:22:33;;;;;;;37.20;9.77;;;;;;;;;;4402877;32;20236;-57
2020/12/31 00:24:58;;;;;;;28.13;7.33;;;;;;;;;;4402697;32;20615;-58
2020/12/31 00:27:24;;;;;;;37.10;8.03;;;;;;;;;;4402876;32;20322;-57
2020/12/31 00:29:49;;;;;;;20.90;8.00;;;;;;;;;;4402669;32;20654;-57
2020/12/31 00:32:15;;;;;;;33.10;8.30;;;;;;;;;;4403164;32;20319;-57
2020/12/31 00:34:41;;;;;;;31.53;7.77;;;;;;;;;;4402592;32;20308;-58
2020/12/31 00:37:06;;;;;;;33.13;11.03;;;;;;;;;;4402962;32;20373;-60
2020/12/31 00:39:32;;;;;;;27.07;9.33;;;;;;;;;;4402412;32;20309;-58
2020/12/31 00:41:57;;;;;;;26.17;5.77;;;;;;;;;;4402567;32;20333;-58
2020/12/31 00:44:23;;;;;;;24.73;7.20;;;;;;;;;;4402509;32;20531;-58
2020/12/31 00:46:48;;;;;;;22.87;8.17;;;;;;;;;;4402552;32;20285;-58
2020/12/31 00:49:14;;;;;;;20.67;5.83;;;;;;;;;;4402259;32;20241;-57
2020/12/31 00:51:39;;;;;;;24.77;5.00;;;;;;;;;;4400980;32;20324;-57
2020/12/31 00:54:05;;;;;;;23.60;5.33;;;;;;;;;;4412788;32;20216;-59
2020/12/31 00:56:30;;;;;;;20.00;4.37;;;;;;;;;;4416151;32;20287;-59
2020/12/31 00:58:55;;;;;;;23.83;4.77;;;;;;;;;;4417377;32;20289;-57
2020/12/31 01:01:21;;;;;;;26.43;4.90;;;;;;;;;;4417412;32;20318;-58
2020/12/31 01:03:46;;;;;;;18.10;5.00;;;;;;;;;;4417510;32;20228;-58
2020/12/31 01:06:12;;;;;;;20.00;4.17;;;;;;;;;;4417330;32;20430;-58
2020/12/31 01:08:37;;;;;;;32.60;10.13;;;;;;;;;;4417132;32;20267;-58
2020/12/31 01:11:03;;;;;;;15.67;4.30;;;;;;;;;;4417213;32;20279;-58
2020/12/31 01:13:29;;;;;;;27.47;6.40;;;;;;;;;;4417544;32;20279;-58
2020/12/31 01:15:54;;;;;;;31.17;8.13;;;;;;;;;;4417061;32;20348;-57
2020/12/31 01:18:20;;;;;;;31.07;7.30;;;;;;;;;;4416937;32;20327;-58
2020/12/31 01:20:45;;;;;;;33.47;11.30;;;;;;;;;;4416941;32;20213;-58
2020/12/31 01:23:11;;;;;;;27.90;7.77;;;;;;;;;;4415914;32;20731;-58
2020/12/31 01:25:36;;;;;;;25.33;6.77;;;;;;;;;;4416756;32;20229;-57
2020/12/31 01:28:03;;;;;;;20.70;4.37;;;;;;;;;;4417042;32;20333;-57
2020/12/31 01:30:29;;;;;;;21.13;5.03;;;;;;;;;;4416700;32;20670;-57
2020/12/31 01:32:55;;;;;;;28.93;6.13;;;;;;;;;;4415944;32;20288;-58
2020/12/31 01:35:20;;;;;;;20.73;5.03;;;;;;;;;;4417168;32;20260;-58
2020/12/31 01:37:46;;;;;;;25.60;6.97;;;;;;;;;;4416557;32;20697;-58
2020/12/31 01:40:12;;;;;;;15.33;4.43;;;;;;;;;;4416686;32;20334;-58
2020/12/31 01:42:42;;;;;;;30.50;5.67;;;;;;;;;;4416580;32;20300;-58
2020/12/31 01:45:07;;;;;;;15.50;5.57;;;;;;;;;;4416803;32;20536;-58
2020/12/31 01:47:34;;;;;;;18.43;4.53;;;;;;;;;;4416550;32;20315;-58
2020/12/31 01:50:00;;;;;;;19.53;6.33;;;;;;;;;;4415265;32;20302;-57
2020/12/31 01:52:27;;;;;;;17.03;5.37;;;;;;;;;;4416050;32;20322;-58
2020/12/31 01:54:53;;;;;;;14.70;5.03;;;;;;;;;;4400986;32;20693;-58
2020/12/31 01:57:18;;;;;;;18.40;5.50;;;;;;;;;;4401554;32;20318;-57
2020/12/31 01:59:44;;;;;;;24.53;4.90;;;;;;;;;;4400101;32;20245;-57
2020/12/31 02:02:10;;;;;;;18.43;4.40;;;;;;;;;;4400223;32;20462;-59
2020/12/31 02:04:36;;;;;;;19.03;4.57;;;;;;;;;;4401294;32;20272;-58
2020/12/31 02:07:02;;;;;;;25.07;5.10;;;;;;;;;;4401355;32;20229;-58
2020/12/31 02:09:29;;;;;;;28.30;5.40;;;;;;;;;;4400982;32;20270;-57
2020/12/31 02:11:55;;;;;;;9.83;3.60;;;;;;;;;;4401376;32;20216;-58
2020/12/31 02:14:20;;;;;;;26.73;5.57;;;;;;;;;;4401418;32;20315;-58
2020/12/31 02:16:46;;;;;;;16.83;4.97;;;;;;;;;;4400298;32;20284;-57
2020/12/31 02:19:18;;;;;;;27.80;4.93;;;;;;;;;;4401414;32;20338;-58
2020/12/31 02:21:44;;;;;;;24.73;6.43;;;;;;;;;;4401261;32;20213;-58
2020/12/31 02:24:09;;;;;;;31.57;10.87;;;;;;;;;;4400078;32;20399;-58
2020/12/31 02:26:38;;;;;;;23.37;7.23;;;;;;;;;;4401729;32;20715;-59
2020/12/31 02:29:05;;;;;;;13.80;4.43;;;;;;;;;;4401059;32;20247;-57
2020/12/31 02:31:31;;;;;;;18.20;5.20;;;;;;;;;;4399978;32;20305;-58
2020/12/31 02:33:58;;;;;;;20.27;5.43;;;;;;;;;;4401295;32;20355;-58
2020/12/31 02:36:26;;;;;;;16.33;4.00;;;;;;;;;;4401250;32;20265;-58
2020/12/31 02:38:52;;;;;;;12.87;3.67;;;;;;;;;;4401198;32;20237;-58
2020/12/31 02:41:19;;;;;;;13.03;3.83;;;;;;;;;;4401630;32;20284;-58
2020/12/31 02:43:45;;;;;;;14.93;3.20;;;;;;;;;;4401334;32;20547;-58
2020/12/31 02:46:13;;;;;;;15.07;4.33;;;;;;;;;;4401251;32;20375;-59
2020/12/31 02:48:39;;;;;;;20.00;4.50;;;;;;;;;;4400952;32;20670;-58
2020/12/31 02:51:05;;;;;;;16.80;3.53;;;;;;;;;;4401152;32;20606;-58
2020/12/31 02:53:30;;;;;;;23.50;4.00;;;;;;;;;;4408598;32;20729;-58
2020/12/31 02:55:56;;;;;;;21.00;4.33;;;;;;;;;;4415874;32;20229;-58
2020/12/31 02:58:22;;;;;;;25.80;6.03;;;;;;;;;;4416195;32;20311;-58
2020/12/31 03:00:48;;;;;;;19.17;4.47;;;;;;;;;;4416115;32;20262;-58
2020/12/31 03:03:13;;;;;;;16.60;4.00;;;;;;;;;;4414791;32;20709;-58
2020/12/31 03:05:39;;;;;;;25.70;4.17;;;;;;;;;;4416261;32;20235;-58
2020/12/31 03:08:04;;;;;;;27.40;5.00;;;;;;;;;;4416427;32;20287;-59
2020/12/31 03:10:30;;;;;;;17.80;4.07;;;;;;;;;;4415897;32;20274;-58
2020/12/31 03:12:56;;;;;;;18.23;4.47;;;;;;;;;;4414881;32;20354;-59
2020/12/31 03:15:22;;;;;;;12.03;4.80;;;;;;;;;;4415816;32;20255;-59
2020/12/31 03:17:48;;;;;;;28.50;4.93;;;;;;;;;;4416064;32;20280;-58
2020/12/31 03:20:14;;;;;;;16.43;6.33;;;;;;;;;;4416211;32;20259;-58
2020/12/31 03:22:39;;;;;;;16.07;4.67;;;;;;;;;;4417750;32;20289;-59
2020/12/31 03:25:06;;;;;;;19.13;4.63;;;;;;;;;;4418887;32;20229;-58
2020/12/31 03:27:32;;;;;;;18.87;5.50;;;;;;;;;;4418683;32;20212;-60
2020/12/31 03:29:57;;;;;;;32.57;7.07;;;;;;;;;;4418405;32;20350;-58
2020/12/31 03:32:23;;;;;;;16.20;6.30;;;;;;;;;;4417394;32;20710;-59
2020/12/31 03:34:49;;;;;;;24.73;8.37;;;;;;;;;;4418548;32;20260;-58
2020/12/31 03:37:14;;;;;;;20.57;3.97;;;;;;;;;;4418705;32;20704;-58
2020/12/31 03:39:41;;;;;;;14.50;4.07;;;;;;;;;;4418573;32;20290;-58
2020/12/31 03:42:06;;;;;;;13.67;4.80;;;;;;;;;;4417252;32;20225;-58
2020/12/31 03:44:32;;;;;;;20.50;4.97;;;;;;;;;;4418467;32;20346;-57
2020/12/31 03:46:57;;;;;;;30.40;4.63;;;;;;;;;;4417623;32;20793;-57
2020/12/31 03:49:23;;;;;;;24.60;5.10;;;;;;;;;;4418549;32;20282;-58
2020/12/31 03:51:48;;;;;;;18.13;3.73;;;;;;;;;;4418728;32;20357;-57
2020/12/31 03:54:14;;;;;;;17.90;3.87;;;;;;;;;;4406555;32;20226;-57
2020/12/31 03:56:40;;;;;;;24.67;5.27;;;;;;;;;;4403615;32;20282;-58
2020/12/31 03:59:05;;;;;;;22.50;5.67;;;;;;;;;;4402226;32;20247;-58
2020/12/31 04:01:32;;;;;;;18.13;5.13;;;;;;;;;;4403106;32;20293;-58
2020/12/31 04:03:58;;;;;;;13.93;4.37;;;;;;;;;;4403109;32;20351;-58
2020/12/31 04:06:23;;;;;;;11.23;3.97;;;;;;;;;;4402945;32;20296;-58
2020/12/31 04:08:49;;;;;;;17.37;3.77;;;;;;;;;;4401309;32;20237;-58
2020/12/31 04:11:15;;;;;;;17.00;4.03;;;;;;;;;;4402874;32;20721;-58
2020/12/31 04:13:40;;;;;;;25.83;4.80;;;;;;;;;;4402731;32;20567;-57
2020/12/31 04:16:06;;;;;;;14.77;3.80;;;;;;;;;;4402956;32;20288;-58
2020/12/31 04:18:31;;;;;;;12.60;4.37;;;;;;;;;;4402693;32;20315;-57
2020/12/31 04:20:57;;;;;;;15.33;3.50;;;;;;;;;;4402648;32;20851;-57
2020/12/31 04:23:24;;;;;;;21.33;5.03;;;;;;;;;;4402480;32;20715;-57
2020/12/31 04:25:50;;;;;;;22.50;8.07;;;;;;;;;;4402726;32;20251;-57
2020/12/31 04:28:16;;;;;;;54.20;22.40;;;;;;;;;;4402360;32;20299;-57
2020/12/31 04:30:44;;;;;;;38.77;17.80;;;;;;;;;;4402087;32;20232;-57
2020/12/31 04:33:10;;;;;;;29.17;14.37;;;;;;;;;;4388376;32;20244;-58
2020/12/31 04:35:35;;;;;;;39.80;13.50;;;;;;;;;;4400634;32;20241;-58
2020/12/31 04:38:01;;;;;;;20.37;6.33;;;;;;;;;;4400510;32;20432;-57
2020/12/31 04:40:26;;;;;;;28.63;7.83;;;;;;;;;;4400765;32;20237;-58
2020/12/31 04:42:52;;;;;;;23.00;8.63;;;;;;;;;;4401912;32;20630;-58
2020/12/31 04:45:21;;;;;;;23.77;6.47;;;;;;;;;;4401863;32;20764;-58
2020/12/31 04:48:09;;;;;;;19.20;6.43;;;;;;;;;;4402176;32;20367;-58
2020/12/31 04:50:42;;;;;;;23.10;6.40;;;;;;;;;;4401981;32;20226;-58
2020/12/31 04:53:10;;;;;;;11.50;4.93;;;;;;;;;;4405492;32;20245;-57
2020/12/31 04:55:46;;;;;;;17.87;4.73;;;;;;;;;;4416681;32;20259;-58
2020/12/31 04:58:15;;;;;;;12.60;4.27;;;;;;;;;;4415622;32;20248;-57
2020/12/31 05:00:42;;;;;;;15.90;5.20;;;;;;;;;;4416359;32;20213;-57
2020/12/31 05:03:09;;;;;;;14.77;5.03;;;;;;;;;;4416618;32;20277;-57
2020/12/31 05:05:35;;;;;;;11.30;4.37;;;;;;;;;;4415401;32;20245;-58
2020/12/31 05:08:03;;;;;;;19.10;7.27;;;;;;;;;;4416332;32;20415;-58
2020/12/31 05:10:29;;;;;;;16.53;6.63;;;;;;;;;;4416161;32;20280;-57
2020/12/31 05:13:01;;;;;;;12.20;6.83;;;;;;;;;;4416378;32;20201;-57
2020/12/31 05:15:41;;;;;;;12.20;5.60;;;;;;;;;;4416367;32;20225;-58
2020/12/31 05:18:19;;;;;;;15.47;6.80;;;;;;;;;;4416518;32;20213;-57
2020/12/31 05:20:56;;;;;;;22.27;7.90;;;;;;;;;;4414949;32;20241;-58
2020/12/31 05:23:23;;;;;;;10.10;4.90;;;;;;;;;;4415005;32;20301;-57
2020/12/31 05:25:49;;;;;;;14.77;6.77;;;;;;;;;;4414889;32;20679;-58
2020/12/31 05:28:21;;;;;;;15.27;4.17;;;;;;;;;;4416493;32;20283;-58
2020/12/31 05:30:49;;;;;;;6.13;3.03;;;;;;;;;;4414460;32;20278;-57
2020/12/31 05:33:24;;;;;;;15.40;5.87;;;;;;;;;;4414804;32;20297;-57
2020/12/31 05:35:50;;;;;;;6.83;3.37;;;;;;;;;;4415951;32;20242;-57
2020/12/31 05:38:21;;;;;;;19.93;9.23;;;;;;;;;;4415681;32;20729;-57
2020/12/31 05:41:00;;;;;;;47.83;19.60;;;;;;;;;;4414405;32;20289;-57
2020/12/31 05:43:25;;;;;;;51.23;19.50;;;;;;;;;;4415762;32;20349;-57
2020/12/31 05:46:11;;;;;;;26.17;14.93;;;;;;;;;;4415171;32;20297;-58
2020/12/31 05:48:38;;;;;;;28.80;12.27;;;;;;;;;;4415681;32;20292;-56
2020/12/31 05:51:26;;;;;;;25.90;13.20;;;;;;;;;;4416029;32;20701;-58
2020/12/31 05:53:52;;;;;;;28.07;14.03;;;;;;;;;;4406395;32;20251;-57
2020/12/31 05:56:20;;;;;;;24.37;16.00;;;;;;;;;;4400739;32;20255;-57
2020/12/31 05:58:49;;;;;;;27.17;15.57;;;;;;;;;;4400835;32;20517;-57
2020/12/31 06:01:15;;;;;;;24.10;15.20;;;;;;;;;;4400543;32;20205;-58
2020/12/31 06:03:49;;;;;;;35.87;18.13;;;;;;;;;;4400293;32;20303;-57
2020/12/31 06:06:20;;;;;;;40.53;19.23;;;;;;;;;;4400571;32;20764;-57
2020/12/31 06:08:56;;;;;;;42.47;20.10;;;;;;;;;;4400634;32;20319;-57
2020/12/31 06:11:50;;;;;;;19.70;9.53;;;;;;;;;;4399283;32;20290;-57
2020/12/31 06:14:25;;;;;;;10.90;4.57;;;;;;;;;;4400467;32;20214;-58
2020/12/31 06:16:55;;;;;;;7.50;3.77;;;;;;;;;;4400841;32;20231;-58
2020/12/31 06:19:39;;;;;;;6.27;2.80;;;;;;;;;;4400479;32;20300;-58
2020/12/31 06:22:11;;;;;;;14.30;6.67;;;;;;;;;;4400539;32;20230;-57
2020/12/31 06:24:39;;;;;;;25.90;11.27;;;;;;;;;;4400525;32;20256;-56
2020/12/31 06:27:10;;;;;;;27.23;14.83;;;;;;;;;;4400456;32;20221;-57
2020/12/31 06:29:50;;;;;;;35.27;16.50;;;;;;;;;;4400340;32;20309;-57
2020/12/31 06:32:35;;;;;;;32.50;18.17;;;;;;;;;;4400570;32;20205;-57
2020/12/31 06:35:09;;;;;;;39.23;22.30;;;;;;;;;;4400534;32;20241;-57
2020/12/31 06:37:36;;;;;;;44.03;24.80;;;;;;;;;;4400177;32;20208;-58
2020/12/31 06:40:20;;;;;;;47.00;26.37;;;;;;;;;;4400321;32;20233;-56
2020/12/31 06:43:03;;;;;;;51.20;27.13;;;;;;;;;;4400258;32;20305;-57
2020/12/31 06:45:37;;;;;;;46.17;27.67;;;;;;;;;;4400068;32;20237;-56
2020/12/31 06:48:03;;;;;;;51.50;27.97;;;;;;;;;;4399608;32;20220;-58
2020/12/31 06:50:56;;;;;;;48.50;27.73;;;;;;;;;;4400252;32;20237;-56
2020/12/31 06:53:30;;;;;;;60.73;39.73;;;;;;;;;;4407097;32;20209;-57
2020/12/31 06:55:58;;;;;;;63.13;42.13;;;;;;;;;;4416310;32;20357;-57
2020/12/31 06:58:24;;;;;;;60.50;36.80;;;;;;;;;;4418320;32;20276;-57
2020/12/31 07:00:53;;;;;;;57.97;35.47;;;;;;;;;;4418327;32;20267;-57
2020/12/31 07:03:41;;;;;;;59.53;33.83;;;;;;;;;;4418101;32;20237;-58
2020/12/31 07:06:22;;;;;;;37.30;25.40;;;;;;;;;;4418335;32;20208;-57
2020/12/31 07:08:48;;;;;;;29.97;18.37;;;;;;;;;;4417999;32;20767;-57
2020/12/31 07:11:13;;;;;;;46.13;24.43;;;;;;;;;;4416803;32;20666;-57
2020/12/31 07:13:40;;;;;;;43.13;23.43;;;;;;;;;;4418173;32;20661;-57
2020/12/31 07:16:08;;;;;;;37.23;21.03;;;;;;;;;;4417844;32;20229;-57
2020/12/31 07:18:34;;;;;;;33.73;22.10;;;;;;;;;;4417680;32;20259;-57
2020/12/31 07:21:00;;;;;;;36.77;24.20;;;;;;;;;;4417566;32;20605;-57
2020/12/31 07:23:38;;;;;;;47.30;27.13;;;;;;;;;;4417880;32;20766;-56
2020/12/31 07:26:04;;;;;;;66.93;43.53;;;;;;;;;;4417657;32;20326;-57
2020/12/31 07:28:29;;;;;;;80.77;43.67;;;;;;;;;;4417941;32;20551;-55
2020/12/31 07:30:55;;;;;;;75.57;46.70;;;;;;;;;;4417610;32;20272;-57
2020/12/31 07:33:34;;;;;;;63.17;42.23;;;;;;;;;;4417924;32;20398;-57
2020/12/31 07:36:10;;;;;;;66.73;43.43;;;;;;;;;;4417603;32;20248;-57
2020/12/31 07:38:36;;;;;;;63.20;39.10;;;;;;;;;;4417948;32;20213;-56
2020/12/31 07:41:01;;;;;;;38.33;27.20;;;;;;;;;;4417777;32;20295;-57
2020/12/31 07:43:30;;;;;;;39.00;24.57;;;;;;;;;;4417829;32;20280;-57
2020/12/31 07:45:59;;;;;;;47.13;26.33;;;;;;;;;;4417851;32;20278;-56
2020/12/31 07:48:25;;;;;;;37.10;23.73;;;;;;;;;;4418082;32;20212;-57
2020/12/31 07:50:59;;;;;;;37.53;22.97;;;;;;;;;;4417810;32;20235;-56
2020/12/31 07:53:25;;;;;;;69.57;42.80;;;;;;;;;;4411069;32;20686;-56
2020/12/31 07:55:52;;;;;;;97.43;55.97;;;;;;;;;;4402091;32;20947;-56
2020/12/31 07:58:19;;;;;;;121.93;77.37;;;;;;;;;;4401115;32;20232;-57
2020/12/31 08:00:45;;;;;;;77.53;48.87;;;;;;;;;;4401168;32;20249;-57
2020/12/31 08:03:11;;;;;;;75.27;45.60;;;;;;;;;;4402395;32;20688;-57
2020/12/31 08:05:37;;;;;;;75.57;44.70;;;;;;;;;;4401991;32;20251;-56
2020/12/31 08:08:03;;;;;;;89.93;63.80;;;;;;;;;;4401549;32;20650;-57
2020/12/31 08:10:37;;;;;;;66.90;45.43;;;;;;;;;;4402515;32;20306;-55
2020/12/31 08:13:04;;;;;;;70.93;43.90;;;;;;;;;;4402409;32;20370;-57
2020/12/31 08:15:31;;;;;;;59.83;31.13;;;;;;;;;;4402033;32;20230;-57
2020/12/31 08:17:58;;;;;;;46.00;26.00;;;;;;;;;;4402261;32;20603;-57
2020/12/31 08:20:28;;;;;;;66.00;36.20;;;;;;;;;;4402389;32;20259;-56
2020/12/31 08:22:59;;;;;;;65.47;42.60;;;;;;;;;;4402445;32;20205;-57
2020/12/31 08:25:27;;;;;;;47.17;26.57;;;;;;;;;;4402485;32;20226;-57
2020/12/31 08:27:56;;;;;;;45.57;23.00;;;;;;;;;;4400579;32;20365;-56
2020/12/31 08:30:23;;;;;;;45.00;25.83;;;;;;;;;;4401733;32;20297;-57
2020/12/31 08:32:51;;;;;;;49.33;30.83;;;;;;;;;;4402192;32;20256;-56
2020/12/31 08:35:43;;;;;;;55.43;33.83;;;;;;;;;;4402107;32;20233;-57
2020/12/31 08:38:17;;;;;;;41.70;26.87;;;;;;;;;;4400731;32;20570;-56
2020/12/31 08:40:56;;;;;;;44.97;31.30;;;;;;;;;;4401834;32;20373;-57
2020/12/31 08:43:33;;;;;;;49.70;35.07;;;;;;;;;;4400610;32;20233;-57
2020/12/31 08:45:59;;;;;;;40.70;22.37;;;;;;;;;;4400515;32;20347;-58
2020/12/31 08:48:37;;;;;;;45.40;25.07;;;;;;;;;;4402007;32;20288;-56
2020/12/31 08:51:15;;;;;;;38.13;26.53;;;;;;;;;;4401629;32;20193;-57
2020/12/31 08:53:57;;;;;;;46.23;29.10;;;;;;;;;;4410226;32;20244;-57
2020/12/31 08:56:28;;;;;;;14.80;9.60;;;;;;;;;;4417298;32;20376;-57
2020/12/31 08:59:13;;;;;;;19.50;9.87;;;;;;;;;;4416625;32;20310;-57
2020/12/31 09:01:41;;;;;;;17.30;9.77;;;;;;;;;;4415545;32;20255;-58
2020/12/31 09:04:14;;;;;;;20.63;11.53;;;;;;;;;;4416704;32;20307;-57
2020/12/31 09:06:43;;;;;;;16.93;11.07;;;;;;;;;;4416381;32;20260;-57
2020/12/31 09:09:20;;;;;;;19.60;14.30;;;;;;;;;;4416849;32;20722;-57
2020/12/31 09:12:01;;;;;;;20.27;12.20;;;;;;;;;;4415572;32;20236;-57
2020/12/31 09:14:28;;;;;;;31.17;14.70;;;;;;;;;;4416669;32;20301;-58
2020/12/31 09:16:54;;;;;;;18.63;12.43;;;;;;;;;;4416501;32;20536;-57
2020/12/31 09:19:20;;;;;;;19.83;11.13;;;;;;;;;;4416457;32;20585;-57
2020/12/31 09:21:46;;;;;;;21.50;15.47;;;;;;;;;;4416364;32;20295;-58
2020/12/31 09:24:23;;;;;;;36.43;22.37;;;;;;;;;;4416503;32;20605;-57
2020/12/31 09:26:57;;;;;;;52.63;29.37;;;;;;;;;;4416770;32;20526;-58
2020/12/31 09:29:24;;;;;;;35.40;22.30;;;;;;;;;;4416762;32;20243;-57
2020/12/31 09:31:50;;;;;;;34.47;25.77;;;;;;;;;;4416870;32;20209;-57
2020/12/31 09:34:16;;;;;;;24.53;16.17;;;;;;;;;;4416503;32;20221;-57
2020/12/31 09:36:42;;;;;;;19.23;10.80;;;;;;;;;;4416279;32;20730;-58
2020/12/31 09:39:08;;;;;;;24.87;14.13;;;;;;;;;;4415072;32;20252;-57
2020/12/31 09:41:33;;;;;;;11.37;7.27;;;;;;;;;;4416317;32;20294;-58
2020/12/31 09:43:59;;;;;;;181.90;85.87;;;;;;;;;;4416104;32;20941;-57
2020/12/31 09:46:25;;;;;;;25.33;14.13;;;;;;;;;;4416309;32;20339;-57
2020/12/31 09:48:51;;;;;;;71.13;38.27;;;;;;;;;;4416303;32;20346;-57
2020/12/31 09:51:20;;;;;;;41.83;23.57;;;;;;;;;;4415034;32;20361;-57
2020/12/31 09:53:47;;;;;;;40.77;23.00;;;;;;;;;;4407548;32;20225;-58
2020/12/31 09:56:12;;;;;;;42.10;26.30;;;;;;;;;;4400006;32;20349;-57
2020/12/31 09:58:42;;;;;;;47.67;27.93;;;;;;;;;;4401015;32;20656;-57
2020/12/31 10:01:07;;;;;;;48.27;29.80;;;;;;;;;;4401037;32;20445;-58
2020/12/31 10:03:33;;;;;;;53.20;30.90;;;;;;;;;;4400961;32;20311;-57
2020/12/31 10:05:59;;;;;;;55.17;31.93;;;;;;;;;;4400572;32;20346;-56
2020/12/31 10:08:24;;;;;;;36.23;22.57;;;;;;;;;;4399634;32;20717;-57
2020/12/31 10:10:50;;;;;;;35.50;18.77;;;;;;;;;;4399613;32;20618;-57
2020/12/31 10:13:15;;;;;;;28.57;17.47;;;;;;;;;;4400806;32;20291;-57
2020/12/31 10:15:41;;;;;;;33.77;18.73;;;;;;;;;;4400770;32;20206;-56
2020/12/31 10:18:07;;;;;;;30.80;19.40;;;;;;;;;;4400885;32;20300;-57
2020/12/31 10:20:32;;;;;;;31.93;19.43;;;;;;;;;;4400683;32;20255;-57
2020/12/31 10:22:58;;;;;;;33.17;18.90;;;;;;;;;;4400849;32;20304;-58
2020/12/31 10:25:23;;;;;;;34.20;20.03;;;;;;;;;;4400625;32;20637;-57
2020/12/31 10:27:49;;;;;;;20.53;13.43;;;;;;;;;;4400804;32;20296;-59
2020/12/31 10:30:15;;;;;;;23.57;12.47;;;;;;;;;;4400972;32;20592;-57
2020/12/31 10:32:40;;;;;;;21.70;13.63;;;;;;;;;;4404157;32;20296;-57
2020/12/31 10:35:06;;;;;;;213.20;117.00;;;;;;;;;;4403949;32;20242;-57
2020/12/31 10:37:32;;;;;;;115.43;66.53;;;;;;;;;;4402779;32;20370;-57
2020/12/31 10:39:57;;;;;;;58.33;35.33;;;;;;;;;;4403491;32;20263;-55
2020/12/31 10:42:23;;;;;;;193.23;109.33;;;;;;;;;;4402437;32;20821;-58
2020/12/31 10:44:49;;;;;;;69.07;41.90;;;;;;;;;;4403505;32;20378;-57
2020/12/31 10:47:14;;;;;;;50.47;28.17;;;;;;;;;;4403717;32;20300;-58
2020/12/31 10:49:40;;;;;;;37.47;22.53;;;;;;;;;;4403840;32;20216;-57
2020/12/31 10:52:05;;;;;;;34.33;23.47;;;;;;;;;;4403635;32;20397;-57
2020/12/31 10:54:31;;;;;;;37.37;24.70;;;;;;;;;;4417284;32;20309;-58
2020/12/31 10:56:57;;;;;;;37.53;22.87;;;;;;;;;;4419133;32;20201;-57
2020/12/31 10:59:23;;;;;;;39.77;25.63;;;;;;;;;;4418721;32;20400;-59
2020/12/31 11:01:55;;;;;;;33.40;20.43;;;;;;;;;;4419052;32;20303;-60
2020/12/31 11:04:21;;;;;;;38.00;24.77;;;;;;;;;;4418671;32;20421;-58
2020/12/31 11:06:47;;;;;;;34.93;22.30;;;;;;;;;;4418511;32;20740;-59
2020/12/31 11:09:12;;;;;;;37.13;24.63;;;;;;;;;;4418441;32;20357;-58
2020/12/31 11:11:39;;;;;;;31.97;21.13;;;;;;;;;;4418846;32;20291;-59
2020/12/31 11:14:05;;;;;;;31.13;19.90;;;;;;;;;;4418674;32;20255;-59
2020/12/31 11:16:31;;;;;;;33.87;20.97;;;;;;;;;;4418563;32;20337;-59
2020/12/31 11:18:56;;;;;;;31.57;21.77;;;;;;;;;;4418607;32;20834;-58
2020/12/31 11:21:23;;;;;;;45.70;24.50;;;;;;;;;;4417209;32;20335;-59
2020/12/31 11:23:49;;;;;;;37.57;23.67;;;;;;;;;;4418751;32;20678;-58
2020/12/31 11:26:15;;;;;;;37.43;22.17;;;;;;;;;;4417195;32;20381;-58
2020/12/31 11:28:42;;;;;;;40.73;19.53;;;;;;;;;;4418374;32;20270;-58
2020/12/31 11:31:09;;;;;;;28.37;18.60;;;;;;;;;;4417223;32;20362;-58
2020/12/31 11:33:41;;;;;;;26.60;16.57;;;;;;;;;;4417085;32;20279;-58
2020/12/31 11:36:08;;;;;;;21.83;13.50;;;;;;;;;;4418499;32;20552;-58
2020/12/31 11:38:33;;;;;;;23.97;13.30;;;;;;;;;;4418500;32;20300;-59
2020/12/31 11:40:59;;;;;;;22.10;10.07;;;;;;;;;;4418503;32;20559;-60
2020/12/31 11:43:25;;;;;;;21.17;11.70;;;;;;;;;;4417561;32;20695;-59
2020/12/31 11:45:50;;;;;;;12.73;5.60;;;;;;;;;;4417108;32;20257;-59
2020/12/31 11:48:15;;;;;;;10.60;4.03;;;;;;;;;;4418554;32;20330;-58
2020/12/31 11:50:41;;;;;;;12.17;4.80;;;;;;;;;;4418203;32;20578;-58
2020/12/31 11:53:07;;;;;;;14.90;5.70;;;;;;;;;;4399616;32;20361;-56
2020/12/31 11:55:32;;;;;;;9.83;5.13;;;;;;;;;;4402969;32;20689;-57
2020/12/31 11:57:58;;;;;;;7.73;4.77;;;;;;;;;;4403209;32;20311;-59
2020/12/31 12:00:23;;;;;;;17.90;8.63;;;;;;;;;;4403384;32;20319;-59
2020/12/31 12:02:49;;;;;;;17.97;9.57;;;;;;;;;;4401890;32;20359;-59
2020/12/31 12:05:14;;;;;;;15.93;6.77;;;;;;;;;;4403092;32;20677;-58
2020/12/31 12:07:40;;;;;;;11.37;5.13;;;;;;;;;;4403205;32;20352;-59
2020/12/31 12:10:06;;;;;;;10.47;6.07;;;;;;;;;;4403149;32;20658;-58
2020/12/31 12:12:31;;;;;;;18.83;7.90;;;;;;;;;;4402001;32;20684;-59
2020/12/31 12:14:56;;;;;;;6.23;2.60;;;;;;;;;;4402835;32;20225;-59
2020/12/31 12:17:22;;;;;;;5.53;3.47;;;;;;;;;;4401501;32;20434;-58
2020/12/31 12:19:47;;;;;;;7.67;3.90;;;;;;;;;;4401124;32;20240;-59
2020/12/31 12:22:13;;;;;;;5.00;1.90;;;;;;;;;;4402741;32;20352;-56
2020/12/31 12:24:38;;;;;;;8.57;2.93;;;;;;;;;;4401339;32;20618;-57
2020/12/31 12:27:06;;;;;;;6.60;2.97;;;;;;;;;;4401293;32;20296;-57
2020/12/31 12:29:32;;;;;;;7.23;3.00;;;;;;;;;;4401267;32;20786;-56
2020/12/31 12:31:57;;;;;;;6.27;2.67;;;;;;;;;;4401246;32;20313;-56
2020/12/31 12:34:23;;;;;;;13.53;3.50;;;;;;;;;;4402346;32;20690;-57
2020/12/31 12:36:49;;;;;;;10.30;5.00;;;;;;;;;;4402667;32;20335;-55
2020/12/31 12:39:15;;;;;;;12.77;4.80;;;;;;;;;;4402642;32;20247;-56
2020/12/31 12:41:40;;;;;;;6.83;3.90;;;;;;;;;;4401361;32;20344;-57
2020/12/31 12:44:06;;;;;;;11.40;4.70;;;;;;;;;;4402739;32;20332;-57
2020/12/31 12:46:31;;;;;;;10.67;5.50;;;;;;;;;;4401127;32;20610;-56
2020/12/31 12:48:57;;;;;;;17.10;5.53;;;;;;;;;;4401037;32;20347;-57
2020/12/31 12:51:22;;;;;;;13.30;6.80;;;;;;;;;;4402322;32;20628;-57
2020/12/31 12:53:48;;;;;;;19.63;6.50;;;;;;;;;;4411019;32;20217;-57
2020/12/31 12:56:13;;;;;;;13.23;7.13;;;;;;;;;;4417425;32;20259;-57
2020/12/31 12:58:40;;;;;;;16.73;8.27;;;;;;;;;;4416130;32;20298;-58
2020/12/31 13:01:06;;;;;;;13.97;6.37;;;;;;;;;;4417501;32;20209;-57
2020/12/31 13:03:31;;;;;;;13.03;6.90;;;;;;;;;;4415955;32;20839;-57
2020/12/31 13:05:57;;;;;;;7.83;3.70;;;;;;;;;;4416853;32;20217;-59
2020/12/31 13:08:22;;;;;;;13.87;4.97;;;;;;;;;;4415836;32;20369;-58
2020/12/31 13:10:48;;;;;;;11.17;5.50;;;;;;;;;;4417305;32;20669;-59
2020/12/31 13:13:14;;;;;;;14.33;3.63;;;;;;;;;;4415928;32;20455;-57
2020/12/31 13:15:41;;;;;;;15.97;5.80;;;;;;;;;;4415554;32;20228;-57
2020/12/31 13:18:10;;;;;;;7.23;3.30;;;;;;;;;;4415918;32;20251;-57
2020/12/31 13:20:39;;;;;;;9.93;2.83;;;;;;;;;;4416769;32;20349;-56
2020/12/31 13:23:05;;;;;;;14.93;5.50;;;;;;;;;;4417055;32;20213;-56
2020/12/31 13:25:31;;;;;;;16.43;6.67;;;;;;;;;;4416590;32;20216;-56
2020/12/31 13:27:57;;;;;;;9.90;3.57;;;;;;;;;;4416883;32;20344;-57
2020/12/31 13:30:22;;;;;;;15.17;4.40;;;;;;;;;;4416890;32;20304;-58
2020/12/31 13:32:48;;;;;;;5.33;3.33;;;;;;;;;;4415724;32;20429;-59
2020/12/31 13:35:14;;;;;;;11.63;4.00;;;;;;;;;;4416746;32;20710;-58
2020/12/31 13:37:40;;;;;;;14.00;4.53;;;;;;;;;;4415323;32;20361;-58
2020/12/31 13:40:06;;;;;;;14.87;6.17;;;;;;;;;;4416830;32;20259;-56
2020/12/31 13:42:33;;;;;;;20.53;8.20;;;;;;;;;;4415710;32;20350;-57
2020/12/31 13:44:59;;;;;;;12.20;6.90;;;;;;;;;;4415509;32;20248;-57
2020/12/31 13:47:25;;;;;;;26.43;9.30;;;;;;;;;;4416614;32;20276;-56
2020/12/31 13:49:50;;;;;;;23.57;9.93;;;;;;;;;;4416527;32;20225;-56
2020/12/31 13:52:16;;;;;;;12.77;5.90;;;;;;;;;;4416474;32;20296;-56
2020/12/31 13:54:41;;;;;;;19.17;8.50;;;;;;;;;;4401728;32;20279;-57
2020/12/31 13:57:06;;;;;;;12.93;6.43;;;;;;;;;;4401269;32;20687;-57
2020/12/31 13:59:32;;;;;;;13.90;8.27;;;;;;;;;;4400139;32;20324;-57
2020/12/31 14:01:57;;;;;;;9.63;5.83;;;;;;;;;;4401381;32;20330;-56
2020/12/31 14:04:26;;;;;;;8.70;4.90;;;;;;;;;;4401193;32;20315;-56
2020/12/31 14:06:51;;;;;;;12.13;5.77;;;;;;;;;;4400643;32;20213;-57
2020/12/31 14:09:17;;;;;;;15.07;9.27;;;;;;;;;;4401240;32;20255;-56
2020/12/31 14:11:43;;;;;;;20.30;8.50;;;;;;;;;;4401586;32;20307;-57
2020/12/31 14:14:08;;;;;;;13.47;5.60;;;;;;;;;;4399977;32;20759;-56
2020/12/31 14:16:36;;;;;;;10.57;3.67;;;;;;;;;;4401418;32;20349;-56
2020/12/31 14:19:03;;;;;;;12.40;4.00;;;;;;;;;;4400980;32;20233;-57
2020/12/31 14:21:30;;;;;;;9.07;4.93;;;;;;;;;;4401279;32;20500;-56
2020/12/31 14:23:55;;;;;;;17.60;8.90;;;;;;;;;;4400262;32;20646;-56
2020/12/31 14:26:21;;;;;;;19.33;11.03;;;;;;;;;;4401379;32;20314;-58
2020/12/31 14:28:47;;;;;;;42.60;29.90;;;;;;;;;;4401159;32;20213;-56